createdAt,value
2023-10-29T00:00:09.169Z,1.27
2023-10-29T00:02:36.993Z,1.45
2023-10-29T00:05:03.715Z,1.60
2023-10-29T00:07:30.296Z,1.73
2023-10-29T00:09:57.169Z,1.30
2023-10-29T00:12:24.059Z,1.75
2023-10-29T00:14:51.076Z,1.60
2023-10-29T00:17:17.982Z,1.52
2023-10-29T00:19:46.456Z,1.67
2023-10-29T00:22:13.129Z,2.03
2023-10-29T00:24:39.779Z,1.92
2023-10-29T00:27:06.496Z,1.33
2023-10-29T00:29:33.328Z,2.13
2023-10-29T00:32:00.049Z,1.77
2023-10-29T00:34:26.605Z,1.67
2023-10-29T00:36:53.182Z,1.63
2023-10-29T00:39:20.133Z,1.77
2023-10-29T00:41:47.702Z,1.77
2023-10-29T00:44:14.268Z,1.70
2023-10-29T00:46:43.016Z,1.63
2023-10-29T00:49:10.055Z,1.40
2023-10-29T00:51:36.787Z,1.83
2023-10-29T00:54:03.541Z,1.52
2023-10-29T00:56:30.423Z,1.70
2023-10-29T00:58:57.068Z,1.92
2023-10-29T01:01:24.075Z,2.10
2023-10-29T01:03:50.894Z,1.70
2023-10-29T01:06:18.256Z,1.83
2023-10-29T01:08:45.155Z,1.92
2023-10-29T01:11:11.758Z,1.83
2023-10-29T01:13:39.934Z,2.17
2023-10-29T01:16:07.218Z,1.88
2023-10-29T01:18:33.985Z,1.98
2023-10-29T01:21:01.315Z,1.92
2023-10-29T01:23:29.800Z,2.20
2023-10-29T01:26:00.647Z,1.92
2023-10-29T01:28:27.759Z,1.67
2023-10-29T01:30:54.513Z,1.83
2023-10-29T01:33:21.269Z,2.00
2023-10-29T01:35:48.035Z,1.50
2023-10-29T01:38:14.708Z,1.45
2023-10-29T01:40:41.277Z,2.03
2023-10-29T01:43:07.911Z,1.30
2023-10-29T01:45:34.534Z,1.30
2023-10-29T01:48:01.274Z,1.77
2023-10-29T01:50:27.858Z,1.75
2023-10-29T01:52:55.198Z,1.60
2023-10-29T01:55:22.145Z,1.52
2023-10-29T01:57:48.801Z,2.05
2023-10-29T02:00:20.271Z,2.28
2023-10-29T02:02:48.506Z,1.90
2023-10-29T02:05:15.439Z,1.60
2023-10-29T02:07:42.243Z,1.48
2023-10-29T02:10:09.107Z,1.52
2023-10-29T02:12:35.961Z,1.25
2023-10-29T02:15:03.130Z,1.50
2023-10-29T02:17:30.198Z,1.38
2023-10-29T02:19:57.499Z,1.58
2023-10-29T02:22:29.191Z,1.40
2023-10-29T02:24:55.873Z,1.35
2023-10-29T02:27:22.859Z,1.60
2023-10-29T02:29:49.524Z,1.88
2023-10-29T02:32:16.759Z,1.42
2023-10-29T02:34:43.485Z,1.75
2023-10-29T02:37:10.223Z,1.48
2023-10-29T02:39:37.187Z,1.45
2023-10-29T02:42:04.112Z,1.85
2023-10-29T02:44:30.736Z,1.60
2023-10-29T02:46:57.405Z,1.90
2023-10-29T02:49:24.096Z,1.48
2023-10-29T02:51:50.639Z,1.77
2023-10-29T02:54:17.190Z,2.03
2023-10-29T02:56:43.768Z,1.70
2023-10-29T02:59:10.953Z,1.60
2023-10-29T03:01:40.827Z,1.35
2023-10-29T03:04:07.873Z,1.30
2023-10-29T03:06:36.543Z,1.80
2023-10-29T03:09:04.342Z,1.63
2023-10-29T03:11:31.408Z,1.52
2023-10-29T03:14:00.114Z,1.50
2023-10-29T03:16:26.905Z,1.40
2023-10-29T03:18:53.646Z,1.85
2023-10-29T03:21:20.494Z,1.70
2023-10-29T03:23:47.367Z,1.48
2023-10-29T03:26:14.609Z,1.45
2023-10-29T03:28:42.898Z,1.55
2023-10-29T03:31:16.709Z,1.75
2023-10-29T03:33:43.742Z,1.38
2023-10-29T03:36:10.514Z,1.50
2023-10-29T03:38:38.500Z,1.85
2023-10-29T03:41:05.187Z,1.60
2023-10-29T03:43:31.833Z,1.40
2023-10-29T03:46:00.782Z,1.40
2023-10-29T03:48:28.019Z,1.33
2023-10-29T03:50:54.870Z,1.83
2023-10-29T03:53:21.491Z,1.80
2023-10-29T03:55:51.316Z,1.70
2023-10-29T03:58:18.270Z,1.63
2023-10-29T04:00:51.080Z,1.40
2023-10-29T04:03:17.957Z,1.83
2023-10-29T04:05:45.004Z,1.50
2023-10-29T04:08:11.826Z,1.27
2023-10-29T04:10:38.451Z,1.60
2023-10-29T04:13:05.249Z,1.23
2023-10-29T04:15:32.086Z,1.25
2023-10-29T04:17:58.817Z,1.73
2023-10-29T04:20:25.681Z,1.58
2023-10-29T04:22:52.361Z,1.63
2023-10-29T04:25:18.994Z,1.92
2023-10-29T04:27:46.042Z,1.10
2023-10-29T04:30:12.927Z,1.33
2023-10-29T04:32:39.594Z,1.38
2023-10-29T04:35:06.565Z,1.05
2023-10-29T04:37:33.094Z,1.50
2023-10-29T04:39:59.877Z,1.50
2023-10-29T04:42:26.587Z,1.38
2023-10-29T04:44:53.216Z,1.55
2023-10-29T04:47:19.791Z,1.60
2023-10-29T04:49:46.448Z,1.15
2023-10-29T04:52:13.145Z,1.23
2023-10-29T04:54:39.811Z,1.20
2023-10-29T04:57:06.446Z,1.20
2023-10-29T04:59:33.253Z,1.08
2023-10-29T05:01:59.969Z,1.40
2023-10-29T05:04:26.777Z,1.20
2023-10-29T05:06:54.192Z,1.40
2023-10-29T05:09:20.985Z,0.90
2023-10-29T05:11:48.545Z,0.88
2023-10-29T05:14:15.283Z,0.90
2023-10-29T05:16:41.930Z,1.10
2023-10-29T05:19:10.386Z,1.50
2023-10-29T05:21:37.131Z,1.25
2023-10-29T05:24:04.084Z,1.20
2023-10-29T05:26:30.943Z,0.98
2023-10-29T05:28:57.588Z,1.73
2023-10-29T05:31:24.413Z,1.30
2023-10-29T05:33:51.125Z,1.20
2023-10-29T05:36:17.811Z,1.05
2023-10-29T05:38:44.457Z,1.30
2023-10-29T05:41:11.204Z,1.52
2023-10-29T05:43:38.256Z,1.23
2023-10-29T05:46:04.941Z,1.50
2023-10-29T05:48:31.588Z,1.10
2023-10-29T05:50:58.257Z,1.20
2023-10-29T05:53:24.920Z,1.17
2023-10-29T05:55:52.039Z,1.02
2023-10-29T05:58:18.697Z,1.70
2023-10-29T06:00:46.635Z,1.30
2023-10-29T06:03:13.734Z,1.45
2023-10-29T06:05:40.521Z,1.50
2023-10-29T06:08:07.219Z,1.20
2023-10-29T06:10:33.955Z,1.70
2023-10-29T06:13:03.409Z,1.15
2023-10-29T06:15:30.315Z,1.02
2023-10-29T06:17:57.028Z,1.45
2023-10-29T06:20:23.869Z,1.80
2023-10-29T06:22:50.488Z,1.52
2023-10-29T06:25:18.071Z,1.58
2023-10-29T06:27:44.735Z,1.33
2023-10-29T06:30:14.876Z,1.77
2023-10-29T06:32:41.815Z,1.48
2023-10-29T06:35:08.723Z,0.93
2023-10-29T06:37:35.618Z,1.20
2023-10-29T06:40:04.201Z,1.33
2023-10-29T06:42:31.018Z,1.55
2023-10-29T06:44:57.685Z,1.80
2023-10-29T06:47:24.395Z,1.52
2023-10-29T06:49:53.933Z,0.88
2023-10-29T06:52:20.467Z,0.90
2023-10-29T06:54:47.313Z,1.50
2023-10-29T06:57:14.350Z,1.58
2023-10-29T06:59:41.805Z,1.58
2023-10-29T07:02:12.110Z,1.25
2023-10-29T07:04:39.149Z,1.73
2023-10-29T07:07:06.000Z,1.63
2023-10-29T07:09:32.837Z,1.90
2023-10-29T07:11:59.637Z,1.73
2023-10-29T07:14:26.714Z,1.60
2023-10-29T07:16:53.258Z,1.55
2023-10-29T07:19:19.837Z,1.27
2023-10-29T07:21:46.420Z,1.40
2023-10-29T07:24:13.012Z,1.42
2023-10-29T07:26:40.458Z,0.90
2023-10-29T07:29:07.471Z,1.27
2023-10-29T07:31:34.284Z,1.58
2023-10-29T07:34:01.088Z,1.55
2023-10-29T07:36:28.123Z,1.23
2023-10-29T07:38:54.758Z,1.50
2023-10-29T07:41:22.753Z,1.15
2023-10-29T07:43:49.657Z,1.42
2023-10-29T07:46:16.537Z,1.00
2023-10-29T07:48:46.200Z,1.13
2023-10-29T07:51:13.372Z,1.30
2023-10-29T07:53:40.229Z,1.10
2023-10-29T07:56:11.149Z,1.15
2023-10-29T07:58:38.831Z,1.20
2023-10-29T08:01:13.360Z,1.58
2023-10-29T08:03:40.986Z,1.67
2023-10-29T08:06:08.323Z,1.00
2023-10-29T08:08:35.551Z,1.42
2023-10-29T08:11:03.916Z,1.27
2023-10-29T08:13:31.075Z,0.90
2023-10-29T08:15:59.105Z,1.40
2023-10-29T08:18:26.016Z,1.33
2023-10-29T08:20:52.782Z,1.58
2023-10-29T08:23:19.426Z,1.23
2023-10-29T08:25:46.120Z,1.25
2023-10-29T08:28:13.029Z,1.27
2023-10-29T08:30:39.666Z,1.25
2023-10-29T08:33:07.590Z,1.00
2023-10-29T08:35:35.170Z,1.40
2023-10-29T08:38:02.330Z,1.30
2023-10-29T08:40:29.045Z,1.00
2023-10-29T08:42:55.679Z,1.15
2023-10-29T08:45:38.454Z,1.00
2023-10-29T08:48:08.286Z,1.27
2023-10-29T08:50:35.309Z,1.33
2023-10-29T08:53:02.493Z,1.05
2023-10-29T08:55:29.316Z,1.20
2023-10-29T08:57:55.908Z,1.13
2023-10-29T09:00:22.590Z,1.17
2023-10-29T09:02:49.435Z,0.93
2023-10-29T09:05:16.401Z,1.40
2023-10-29T09:07:43.114Z,1.20
2023-10-29T09:10:10.192Z,1.17
2023-10-29T09:12:38.129Z,1.60
2023-10-29T09:15:05.210Z,1.38
2023-10-29T09:17:32.555Z,1.17
2023-10-29T09:20:02.318Z,1.30
2023-10-29T09:22:28.979Z,1.52
2023-10-29T09:24:55.709Z,1.40
2023-10-29T09:27:22.483Z,1.10
2023-10-29T09:29:50.000Z,1.30
2023-10-29T09:32:17.748Z,1.08
2023-10-29T09:34:44.436Z,1.60
2023-10-29T09:37:11.361Z,1.02
2023-10-29T09:39:38.577Z,1.38
2023-10-29T09:42:10.091Z,1.13
2023-10-29T09:44:40.574Z,0.80
2023-10-29T09:47:15.444Z,0.80
2023-10-29T09:49:42.939Z,0.90
2023-10-29T09:52:10.165Z,1.00
2023-10-29T09:54:38.943Z,0.90
2023-10-29T09:57:07.235Z,0.90
2023-10-29T09:59:36.940Z,0.70
2023-10-29T10:02:04.422Z,0.90
2023-10-29T10:04:31.304Z,0.60
2023-10-29T10:07:01.461Z,0.88
2023-10-29T10:09:29.385Z,0.63
2023-10-29T10:12:04.808Z,0.80
2023-10-29T10:14:31.802Z,0.80
2023-10-29T10:17:09.720Z,0.82
2023-10-29T10:19:37.550Z,0.80
2023-10-29T10:22:07.091Z,0.70
2023-10-29T10:24:45.403Z,0.65
2023-10-29T10:27:14.466Z,0.70
2023-10-29T10:29:41.363Z,0.73
2023-10-29T10:32:08.192Z,0.80
2023-10-29T10:34:35.549Z,0.52
2023-10-29T10:37:03.958Z,0.90
2023-10-29T10:39:34.904Z,0.57
2023-10-29T10:42:03.763Z,0.95
2023-10-29T10:44:31.616Z,0.98
2023-10-29T10:47:00.046Z,1.10
2023-10-29T10:49:27.589Z,1.38
2023-10-29T10:51:56.500Z,1.50
2023-10-29T10:54:24.236Z,1.20
2023-10-29T10:56:53.430Z,1.27
2023-10-29T10:59:21.439Z,1.25
2023-10-29T11:01:49.722Z,1.05
2023-10-29T11:04:17.039Z,0.80
2023-10-29T11:06:45.047Z,0.68
2023-10-29T11:09:14.301Z,0.60
2023-10-29T11:11:50.759Z,0.68
2023-10-29T11:14:19.223Z,0.93
2023-10-29T11:17:06.889Z,0.90
2023-10-29T11:19:51.003Z,0.80
2023-10-29T11:22:23.234Z,1.00
2023-10-29T11:25:16.010Z,1.35
2023-10-29T11:27:45.852Z,1.10
2023-10-29T11:30:16.361Z,1.00
2023-10-29T11:32:44.368Z,0.85
2023-10-29T11:35:20.818Z,0.90
2023-10-29T11:37:49.841Z,0.90
2023-10-29T11:40:30.232Z,0.90
2023-10-29T11:42:58.615Z,0.65
2023-10-29T11:45:33.264Z,0.75
2023-10-29T11:48:21.482Z,0.80
2023-10-29T11:51:07.381Z,0.82
2023-10-29T11:53:34.284Z,0.68
2023-10-29T11:56:05.687Z,0.90
2023-10-29T11:58:32.779Z,0.80
2023-10-29T12:01:02.397Z,1.00
2023-10-29T12:03:31.129Z,0.90
2023-10-29T12:05:58.407Z,0.93
2023-10-29T12:08:27.410Z,0.68
2023-10-29T12:10:56.740Z,0.85
2023-10-29T12:13:24.052Z,0.93
2023-10-29T12:15:58.769Z,0.80
2023-10-29T12:18:26.459Z,0.70
2023-10-29T12:21:10.096Z,0.80
2023-10-29T12:23:37.421Z,0.80
2023-10-29T12:26:10.721Z,0.75
2023-10-29T12:28:38.279Z,0.80
2023-10-29T12:31:07.157Z,0.50
2023-10-29T12:33:36.186Z,0.70
2023-10-29T12:36:06.403Z,0.82
2023-10-29T12:38:33.119Z,0.77
2023-10-29T12:41:18.513Z,0.63
2023-10-29T12:43:50.115Z,0.85
2023-10-29T12:46:18.965Z,0.90
2023-10-29T12:49:04.917Z,0.70
2023-10-29T12:51:33.470Z,0.80
2023-10-29T12:54:20.921Z,0.98
2023-10-29T12:56:53.923Z,0.90
2023-10-29T12:59:28.596Z,0.83
2023-10-29T13:01:56.011Z,0.90
2023-10-29T13:04:24.398Z,0.80
2023-10-29T13:06:56.498Z,0.77
2023-10-29T13:09:24.121Z,0.75
2023-10-29T13:11:53.801Z,0.90
2023-10-29T13:14:21.024Z,0.60
2023-10-29T13:16:47.737Z,0.90
2023-10-29T13:19:14.609Z,0.80
2023-10-29T13:21:41.731Z,1.35
2023-10-29T13:24:09.443Z,1.33
2023-10-29T13:26:36.860Z,1.10
2023-10-29T13:29:03.567Z,0.90
2023-10-29T13:31:30.556Z,1.20
2023-10-29T13:34:00.299Z,0.90
2023-10-29T13:36:29.758Z,0.80
2023-10-29T13:38:57.392Z,1.02
2023-10-29T13:41:24.188Z,0.93
2023-10-29T13:43:50.884Z,1.00
2023-10-29T13:46:17.842Z,1.00
2023-10-29T13:48:46.972Z,1.00
2023-10-29T13:51:13.776Z,0.90
2023-10-29T13:53:40.610Z,0.93
2023-10-29T13:56:08.050Z,1.30
2023-10-29T13:58:35.522Z,1.13
2023-10-29T14:01:03.030Z,1.10
2023-10-29T14:03:30.071Z,1.10
2023-10-29T14:05:57.269Z,0.90
2023-10-29T14:08:27.382Z,0.70
2023-10-29T14:10:54.053Z,1.02
2023-10-29T14:13:20.685Z,0.90
2023-10-29T14:15:47.331Z,0.98
2023-10-29T14:18:14.225Z,1.10
2023-10-29T14:20:40.930Z,1.00
2023-10-29T14:23:07.654Z,1.10
2023-10-29T14:25:34.346Z,0.88
2023-10-29T14:28:02.107Z,0.70
2023-10-29T14:30:29.292Z,0.50
2023-10-29T14:32:56.386Z,0.82
2023-10-29T14:35:23.161Z,0.73
2023-10-29T14:37:53.249Z,0.85
2023-10-29T14:40:20.726Z,0.80
2023-10-29T14:42:50.290Z,1.30
2023-10-29T14:45:17.498Z,1.90
2023-10-29T14:47:44.872Z,0.70
2023-10-29T14:50:12.713Z,1.08
2023-10-29T14:52:39.966Z,0.75
2023-10-29T14:55:07.382Z,0.80
2023-10-29T14:57:34.475Z,1.10
2023-10-29T15:00:01.320Z,2.22
2023-10-29T15:02:28.391Z,2.10
2023-10-29T15:04:56.594Z,2.53
2023-10-29T15:07:24.025Z,2.30
2023-10-29T15:09:51.039Z,2.08
2023-10-29T15:12:18.473Z,1.60
2023-10-29T15:14:48.177Z,1.70
2023-10-29T15:17:18.085Z,1.75
2023-10-29T15:19:50.829Z,1.80
2023-10-29T15:22:17.419Z,1.88
2023-10-29T15:24:44.050Z,0.90
2023-10-29T15:27:10.592Z,1.50
2023-10-29T15:29:37.339Z,0.90
2023-10-29T15:32:04.205Z,0.75
2023-10-29T15:34:33.941Z,0.85
2023-10-29T15:37:00.487Z,1.15
2023-10-29T15:39:28.648Z,2.10
2023-10-29T15:41:55.219Z,1.00
2023-10-29T15:44:21.793Z,1.10
2023-10-29T15:46:48.927Z,0.80
2023-10-29T15:49:15.498Z,0.63
2023-10-29T15:51:42.088Z,0.88
2023-10-29T15:54:08.779Z,1.10
2023-10-29T15:56:37.709Z,1.52
2023-10-29T15:59:10.294Z,0.90
2023-10-29T16:01:37.230Z,0.90
2023-10-29T16:04:04.189Z,2.05
2023-10-29T16:06:30.885Z,0.85
2023-10-29T16:08:57.584Z,1.10
2023-10-29T16:11:26.198Z,1.02
2023-10-29T16:13:52.882Z,1.02
2023-10-29T16:16:20.077Z,1.52
2023-10-29T16:18:46.720Z,1.15
2023-10-29T16:21:13.339Z,1.15
2023-10-29T16:23:39.967Z,1.30
2023-10-29T16:26:06.579Z,1.20
2023-10-29T16:28:33.148Z,1.30
2023-10-29T16:31:00.280Z,1.38
2023-10-29T16:33:27.908Z,1.00
2023-10-29T16:35:56.530Z,1.15
2023-10-29T16:38:23.532Z,1.40
2023-10-29T16:40:51.577Z,1.08
2023-10-29T16:43:18.339Z,0.90
2023-10-29T16:45:45.884Z,1.30
2023-10-29T16:48:12.556Z,1.30
2023-10-29T16:50:52.470Z,0.90
2023-10-29T16:53:23.134Z,1.15
2023-10-29T16:55:49.798Z,1.58
2023-10-29T16:58:16.377Z,1.20
2023-10-29T17:00:47.276Z,1.02
2023-10-29T17:03:14.148Z,0.98
2023-10-29T17:05:40.847Z,0.88
2023-10-29T17:08:07.763Z,0.80
2023-10-29T17:10:34.540Z,1.05
2023-10-29T17:13:03.262Z,0.95
2023-10-29T17:15:30.400Z,1.10
2023-10-29T17:17:57.245Z,1.15
2023-10-29T17:20:24.309Z,1.33
2023-10-29T17:22:52.263Z,1.20
2023-10-29T17:25:19.049Z,1.30
2023-10-29T17:27:45.752Z,1.33
2023-10-29T17:30:13.692Z,1.20
2023-10-29T17:32:40.453Z,1.58
2023-10-29T17:35:08.074Z,1.23
2023-10-29T17:37:35.302Z,1.08
2023-10-29T17:40:02.810Z,0.98
2023-10-29T17:42:31.452Z,1.00
2023-10-29T17:44:58.136Z,1.30
2023-10-29T17:47:25.356Z,1.27
2023-10-29T17:49:52.026Z,1.15
2023-10-29T17:52:18.628Z,0.90
2023-10-29T17:54:45.246Z,1.25
2023-10-29T17:57:13.105Z,0.90
2023-10-29T17:59:40.125Z,1.40
2023-10-29T18:02:06.721Z,1.52
2023-10-29T18:04:33.546Z,1.40
2023-10-29T18:07:00.483Z,1.00
2023-10-29T18:09:27.663Z,1.42
2023-10-29T18:11:56.898Z,1.00
2023-10-29T18:14:24.497Z,1.50
2023-10-29T18:16:52.059Z,1.75
2023-10-29T18:19:18.760Z,1.40
2023-10-29T18:21:45.526Z,1.00
2023-10-29T18:24:13.666Z,2.15
2023-10-29T18:26:40.670Z,1.65
2023-10-29T18:29:08.426Z,1.00
2023-10-29T18:31:35.299Z,1.08
2023-10-29T18:34:05.365Z,1.00
2023-10-29T18:36:32.938Z,1.20
2023-10-29T18:39:03.122Z,0.70
2023-10-29T18:41:30.414Z,0.70
2023-10-29T18:44:00.326Z,0.70
2023-10-29T18:46:28.480Z,1.00
2023-10-29T18:48:55.918Z,0.70
2023-10-29T18:51:24.747Z,0.80
2023-10-29T18:53:52.073Z,0.70
2023-10-29T18:56:19.600Z,0.80
2023-10-29T18:58:46.460Z,0.60
2023-10-29T19:01:13.816Z,1.17
2023-10-29T19:03:41.662Z,0.60
2023-10-29T19:06:09.637Z,0.63
2023-10-29T19:08:37.902Z,0.90
2023-10-29T19:11:06.017Z,0.45
2023-10-29T19:13:33.780Z,1.05
2023-10-29T19:16:03.235Z,1.17
2023-10-29T19:18:30.076Z,0.60
2023-10-29T19:20:56.741Z,0.60
2023-10-29T19:23:23.386Z,0.80
2023-10-29T19:25:50.002Z,0.60
2023-10-29T19:28:16.832Z,0.40
2023-10-29T19:31:04.365Z,0.60
2023-10-29T19:33:34.285Z,0.45
2023-10-29T19:36:15.226Z,0.80
2023-10-29T19:38:42.721Z,0.70
2023-10-29T19:41:09.646Z,0.75
2023-10-29T19:43:36.365Z,0.40
2023-10-29T19:46:04.709Z,0.45
2023-10-29T19:48:31.485Z,0.63
2023-10-29T19:51:03.440Z,0.70
2023-10-29T19:53:31.427Z,0.50
2023-10-29T19:55:58.108Z,0.82
2023-10-29T19:58:25.079Z,0.40
2023-10-29T20:00:51.998Z,0.60
2023-10-29T20:03:19.328Z,0.70
2023-10-29T20:05:46.358Z,0.50
2023-10-29T20:08:13.155Z,0.40
2023-10-29T20:10:41.021Z,0.30
2023-10-29T20:13:08.053Z,0.40
2023-10-29T20:15:35.751Z,0.57
2023-10-29T20:18:03.274Z,0.50
2023-10-29T20:20:30.722Z,0.30
2023-10-29T20:22:57.843Z,0.57
2023-10-29T20:25:30.875Z,0.40
2023-10-29T20:27:57.617Z,0.50
2023-10-29T20:30:24.524Z,0.50
2023-10-29T20:32:51.561Z,0.30
2023-10-29T20:35:18.835Z,0.50
2023-10-29T20:37:45.928Z,0.52
2023-10-29T20:40:13.123Z,0.70
2023-10-29T20:42:39.695Z,0.30
2023-10-29T20:45:07.264Z,0.63
2023-10-29T20:47:35.184Z,0.45
2023-10-29T20:50:05.816Z,0.50
2023-10-29T20:52:33.653Z,0.50
2023-10-29T20:55:00.494Z,0.30
2023-10-29T20:57:27.415Z,0.82
2023-10-29T20:59:54.216Z,0.40
2023-10-29T21:02:21.076Z,0.68
2023-10-29T21:04:47.777Z,0.70
2023-10-29T21:07:14.417Z,0.50
2023-10-29T21:09:41.303Z,0.43
2023-10-29T21:12:08.450Z,0.30
2023-10-29T21:14:35.365Z,0.38
2023-10-29T21:17:02.047Z,0.47
2023-10-29T21:19:30.671Z,0.60
2023-10-29T21:21:58.601Z,0.50
2023-10-29T21:24:25.456Z,0.40
2023-10-29T21:26:53.215Z,0.60
2023-10-29T21:29:19.888Z,0.40
2023-10-29T21:31:46.439Z,0.60
2023-10-29T21:34:13.120Z,0.77
2023-10-29T21:36:39.766Z,0.60
2023-10-29T21:39:08.291Z,0.47
2023-10-29T21:41:34.985Z,0.60
2023-10-29T21:44:01.586Z,0.60
2023-10-29T21:46:28.366Z,0.50
2023-10-29T21:48:54.989Z,0.55
2023-10-29T21:51:21.831Z,0.40
2023-10-29T21:53:48.477Z,0.30
2023-10-29T21:56:15.054Z,0.47
2023-10-29T21:58:41.675Z,0.60
2023-10-29T22:01:12.068Z,0.70
2023-10-29T22:03:38.893Z,0.57
2023-10-29T22:06:07.533Z,0.90
2023-10-29T22:08:35.042Z,0.43
2023-10-29T22:11:03.630Z,0.40
2023-10-29T22:13:32.892Z,0.73
2023-10-29T22:16:05.009Z,0.70
2023-10-29T22:18:34.665Z,0.82
2023-10-29T22:21:02.175Z,0.63
2023-10-29T22:23:28.776Z,0.52
2023-10-29T22:25:55.485Z,0.52
2023-10-29T22:28:22.869Z,0.40
2023-10-29T22:30:49.696Z,0.52
2023-10-29T22:33:16.296Z,0.80
2023-10-29T22:35:43.843Z,0.45
2023-10-29T22:38:11.879Z,0.80
2023-10-29T22:40:38.858Z,0.52
2023-10-29T22:43:05.373Z,0.60
2023-10-29T22:45:32.342Z,0.90
2023-10-29T22:47:59.105Z,0.70
2023-10-29T22:50:25.852Z,0.52
2023-10-29T22:52:52.475Z,0.57
2023-10-29T22:55:19.723Z,0.68
2023-10-29T22:57:49.567Z,0.85
2023-10-29T23:00:16.783Z,0.30
2023-10-29T23:02:43.484Z,0.65
2023-10-29T23:05:10.680Z,0.73
2023-10-29T23:07:37.362Z,0.70
2023-10-29T23:10:04.341Z,0.60
2023-10-29T23:12:31.061Z,0.38
2023-10-29T23:14:57.738Z,0.63
2023-10-29T23:17:24.368Z,0.55
2023-10-29T23:19:50.918Z,0.60
2023-10-29T23:22:17.477Z,0.50
2023-10-29T23:24:44.186Z,0.60
2023-10-29T23:27:10.914Z,0.35
2023-10-29T23:29:37.556Z,0.73
2023-10-29T23:32:04.420Z,0.65
2023-10-29T23:34:31.136Z,0.73
2023-10-29T23:36:57.864Z,0.57
2023-10-29T23:39:24.507Z,0.30
2023-10-29T23:41:51.588Z,0.60
2023-10-29T23:44:18.718Z,0.50
2023-10-29T23:46:45.407Z,0.88
2023-10-29T23:49:11.991Z,0.70
2023-10-29T23:51:38.612Z,0.68
2023-10-29T23:54:05.552Z,0.52
2023-10-29T23:56:32.293Z,0.55
2023-10-29T23:58:59.015Z,0.43
